sensor_id;sensor_type;location;lat;lon;timestamp;temperature;humidity
80230;DHT22;69540;42.136;24.742;2023-09-07T00:01:50;28.30;33.30
80230;DHT22;69540;42.136;24.742;2023-09-07T00:04:19;28.40;33.40
80230;DHT22;69540;42.136;24.742;2023-09-07T00:06:44;28.30;33.40
80230;DHT22;69540;42.136;24.742;2023-09-07T00:09:10;28.30;33.40
80230;DHT22;69540;42.136;24.742;2023-09-07T00:11:37;28.30;33.30
80230;DHT22;69540;42.136;24.742;2023-09-07T00:14:03;28.40;33.40
80230;DHT22;69540;42.136;24.742;2023-09-07T00:16:31;28.40;33.40
80230;DHT22;69540;42.136;24.742;2023-09-07T00:18:59;28.40;33.40
80230;DHT22;69540;42.136;24.742;2023-09-07T00:21:25;28.30;33.30
80230;DHT22;69540;42.136;24.742;2023-09-07T00:23:50;28.30;33.40
80230;DHT22;69540;42.136;24.742;2023-09-07T00:26:16;28.30;33.40
80230;DHT22;69540;42.136;24.742;2023-09-07T00:28:42;28.30;33.40
80230;DHT22;69540;42.136;24.742;2023-09-07T00:31:07;28.30;33.40
80230;DHT22;69540;42.136;24.742;2023-09-07T00:33:33;28.30;33.40
80230;DHT22;69540;42.136;24.742;2023-09-07T00:36:01;28.30;33.40
80230;DHT22;69540;42.136;24.742;2023-09-07T00:38:28;28.40;33.40
80230;DHT22;69540;42.136;24.742;2023-09-07T00:40:53;28.40;33.40
80230;DHT22;69540;42.136;24.742;2023-09-07T00:43:19;28.30;33.30
80230;DHT22;69540;42.136;24.742;2023-09-07T00:45:44;28.30;33.30
80230;DHT22;69540;42.136;24.742;2023-09-07T00:48:12;28.40;33.40
80230;DHT22;69540;42.136;24.742;2023-09-07T00:50:39;28.40;33.40
80230;DHT22;69540;42.136;24.742;2023-09-07T00:53:05;28.40;33.50
80230;DHT22;69540;42.136;24.742;2023-09-07T00:55:33;28.40;33.40
80230;DHT22;69540;42.136;24.742;2023-09-07T00:58:00;28.40;33.40
80230;DHT22;69540;42.136;24.742;2023-09-07T01:00:26;28.30;33.40
80230;DHT22;69540;42.136;24.742;2023-09-07T01:02:52;28.30;33.40
80230;DHT22;69540;42.136;24.742;2023-09-07T01:05:20;28.30;33.40
80230;DHT22;69540;42.136;24.742;2023-09-07T01:07:50;28.30;33.40
80230;DHT22;69540;42.136;24.742;2023-09-07T01:10:19;28.40;33.50
80230;DHT22;69540;42.136;24.742;2023-09-07T01:12:46;28.30;33.40
80230;DHT22;69540;42.136;24.742;2023-09-07T01:15:11;28.40;33.50
80230;DHT22;69540;42.136;24.742;2023-09-07T01:17:37;28.30;33.40
80230;DHT22;69540;42.136;24.742;2023-09-07T01:20:04;28.40;33.50
80230;DHT22;69540;42.136;24.742;2023-09-07T01:22:36;28.30;33.40
80230;DHT22;69540;42.136;24.742;2023-09-07T01:25:02;28.30;33.40
80230;DHT22;69540;42.136;24.742;2023-09-07T01:27:28;28.40;33.50
80230;DHT22;69540;42.136;24.742;2023-09-07T01:29:54;28.30;33.50
80230;DHT22;69540;42.136;24.742;2023-09-07T01:32:20;28.40;33.50
80230;DHT22;69540;42.136;24.742;2023-09-07T01:34:45;28.30;33.50
80230;DHT22;69540;42.136;24.742;2023-09-07T01:37:11;28.30;33.40
80230;DHT22;69540;42.136;24.742;2023-09-07T01:39:37;28.30;33.40
80230;DHT22;69540;42.136;24.742;2023-09-07T01:42:02;28.30;33.50
80230;DHT22;69540;42.136;24.742;2023-09-07T01:44:28;28.30;33.50
80230;DHT22;69540;42.136;24.742;2023-09-07T01:46:55;28.30;33.50
80230;DHT22;69540;42.136;24.742;2023-09-07T01:49:21;28.30;33.50
80230;DHT22;69540;42.136;24.742;2023-09-07T01:51:46;28.30;33.50
80230;DHT22;69540;42.136;24.742;2023-09-07T01:54:12;28.30;33.50
80230;DHT22;69540;42.136;24.742;2023-09-07T01:56:38;28.30;33.50
80230;DHT22;69540;42.136;24.742;2023-09-07T01:59:06;28.30;33.50
80230;DHT22;69540;42.136;24.742;2023-09-07T02:01:32;28.30;33.50
80230;DHT22;69540;42.136;24.742;2023-09-07T02:04:02;28.30;33.50
80230;DHT22;69540;42.136;24.742;2023-09-07T02:06:29;28.30;33.50
80230;DHT22;69540;42.136;24.742;2023-09-07T02:08:55;28.30;33.60
80230;DHT22;69540;42.136;24.742;2023-09-07T02:11:20;28.30;33.50
80230;DHT22;69540;42.136;24.742;2023-09-07T02:13:47;28.30;33.50
80230;DHT22;69540;42.136;24.742;2023-09-07T02:16:13;28.30;33.60
80230;DHT22;69540;42.136;24.742;2023-09-07T02:18:39;28.30;33.60
80230;DHT22;69540;42.136;24.742;2023-09-07T02:21:11;28.30;33.60
80230;DHT22;69540;42.136;24.742;2023-09-07T02:23:36;28.30;33.60
80230;DHT22;69540;42.136;24.742;2023-09-07T02:26:03;28.30;33.60
80230;DHT22;69540;42.136;24.742;2023-09-07T02:28:29;28.30;33.60
80230;DHT22;69540;42.136;24.742;2023-09-07T02:31:01;28.30;33.70
80230;DHT22;69540;42.136;24.742;2023-09-07T02:33:27;28.30;33.60
80230;DHT22;69540;42.136;24.742;2023-09-07T02:35:53;28.30;33.60
80230;DHT22;69540;42.136;24.742;2023-09-07T02:38:19;28.30;33.70
80230;DHT22;69540;42.136;24.742;2023-09-07T02:40:44;28.30;33.60
80230;DHT22;69540;42.136;24.742;2023-09-07T02:43:11;28.30;33.70
80230;DHT22;69540;42.136;24.742;2023-09-07T02:45:37;28.30;33.70
80230;DHT22;69540;42.136;24.742;2023-09-07T02:48:03;28.30;33.70
80230;DHT22;69540;42.136;24.742;2023-09-07T02:50:31;28.30;33.80
80230;DHT22;69540;42.136;24.742;2023-09-07T02:52:56;28.30;33.70
80230;DHT22;69540;42.136;24.742;2023-09-07T02:55:23;28.30;33.70
80230;DHT22;69540;42.136;24.742;2023-09-07T02:57:48;28.30;33.80
80230;DHT22;69540;42.136;24.742;2023-09-07T03:00:14;28.30;33.80
80230;DHT22;69540;42.136;24.742;2023-09-07T03:02:43;28.30;33.80
80230;DHT22;69540;42.136;24.742;2023-09-07T03:05:09;28.30;33.80
80230;DHT22;69540;42.136;24.742;2023-09-07T03:07:34;28.30;33.90
80230;DHT22;69540;42.136;24.742;2023-09-07T03:10:00;28.30;33.80
80230;DHT22;69540;42.136;24.742;2023-09-07T03:12:27;28.30;33.80
80230;DHT22;69540;42.136;24.742;2023-09-07T03:14:53;28.30;33.80
80230;DHT22;69540;42.136;24.742;2023-09-07T03:17:19;28.30;33.80
80230;DHT22;69540;42.136;24.742;2023-09-07T03:19:46;28.30;33.80
80230;DHT22;69540;42.136;24.742;2023-09-07T03:22:12;28.30;33.90
80230;DHT22;69540;42.136;24.742;2023-09-07T03:24:38;28.30;33.90
80230;DHT22;69540;42.136;24.742;2023-09-07T03:27:05;28.30;33.90
80230;DHT22;69540;42.136;24.742;2023-09-07T03:29:34;28.30;33.90
80230;DHT22;69540;42.136;24.742;2023-09-07T03:32:01;28.30;33.90
80230;DHT22;69540;42.136;24.742;2023-09-07T03:34:26;28.30;33.80
80230;DHT22;69540;42.136;24.742;2023-09-07T03:36:52;28.30;34.00
80230;DHT22;69540;42.136;24.742;2023-09-07T03:39:18;28.30;34.80
80230;DHT22;69540;42.136;24.742;2023-09-07T03:41:44;28.30;34.90
80230;DHT22;69540;42.136;24.742;2023-09-07T03:44:10;28.30;34.90
80230;DHT22;69540;42.136;24.742;2023-09-07T03:46:36;28.30;36.00
80230;DHT22;69540;42.136;24.742;2023-09-07T03:49:02;28.30;36.80
80230;DHT22;69540;42.136;24.742;2023-09-07T03:51:27;28.30;36.40
80230;DHT22;69540;42.136;24.742;2023-09-07T03:53:53;28.30;36.10
80230;DHT22;69540;42.136;24.742;2023-09-07T03:56:19;28.30;36.40
80230;DHT22;69540;42.136;24.742;2023-09-07T03:58:44;28.30;36.80
80230;DHT22;69540;42.136;24.742;2023-09-07T04:01:13;28.30;37.00
80230;DHT22;69540;42.136;24.742;2023-09-07T04:03:39;28.20;37.20
80230;DHT22;69540;42.136;24.742;2023-09-07T04:06:06;28.30;37.00
80230;DHT22;69540;42.136;24.742;2023-09-07T04:08:32;28.30;36.50
80230;DHT22;69540;42.136;24.742;2023-09-07T04:10:58;28.30;36.30
80230;DHT22;69540;42.136;24.742;2023-09-07T04:13:23;28.30;36.20
80230;DHT22;69540;42.136;24.742;2023-09-07T04:15:49;28.30;36.40
80230;DHT22;69540;42.136;24.742;2023-09-07T04:18:15;28.30;37.10
80230;DHT22;69540;42.136;24.742;2023-09-07T04:20:42;28.30;37.80
80230;DHT22;69540;42.136;24.742;2023-09-07T04:23:08;28.30;38.00
80230;DHT22;69540;42.136;24.742;2023-09-07T04:25:34;28.30;37.00
80230;DHT22;69540;42.136;24.742;2023-09-07T04:27:59;28.30;36.60
80230;DHT22;69540;42.136;24.742;2023-09-07T04:30:25;28.30;36.20
80230;DHT22;69540;42.136;24.742;2023-09-07T04:32:51;28.30;36.10
80230;DHT22;69540;42.136;24.742;2023-09-07T04:35:17;28.30;36.10
80230;DHT22;69540;42.136;24.742;2023-09-07T04:37:43;28.30;36.30
80230;DHT22;69540;42.136;24.742;2023-09-07T04:40:09;28.30;36.40
80230;DHT22;69540;42.136;24.742;2023-09-07T04:42:35;28.30;36.50
80230;DHT22;69540;42.136;24.742;2023-09-07T04:45:01;28.30;36.20
80230;DHT22;69540;42.136;24.742;2023-09-07T04:47:27;28.30;36.40
80230;DHT22;69540;42.136;24.742;2023-09-07T04:49:53;28.30;37.40
80230;DHT22;69540;42.136;24.742;2023-09-07T04:52:18;28.30;36.40
80230;DHT22;69540;42.136;24.742;2023-09-07T04:54:44;28.30;36.30
80230;DHT22;69540;42.136;24.742;2023-09-07T04:57:10;28.30;36.00
80230;DHT22;69540;42.136;24.742;2023-09-07T04:59:36;28.30;35.80
80230;DHT22;69540;42.136;24.742;2023-09-07T05:02:02;28.30;36.10
80230;DHT22;69540;42.136;24.742;2023-09-07T05:04:28;28.30;36.60
80230;DHT22;69540;42.136;24.742;2023-09-07T05:06:56;28.30;36.70
80230;DHT22;69540;42.136;24.742;2023-09-07T05:09:21;28.30;36.30
80230;DHT22;69540;42.136;24.742;2023-09-07T05:11:49;28.30;36.50
80230;DHT22;69540;42.136;24.742;2023-09-07T05:14:14;28.30;36.40
80230;DHT22;69540;42.136;24.742;2023-09-07T05:16:42;28.30;36.70
80230;DHT22;69540;42.136;24.742;2023-09-07T05:19:09;28.30;36.40
80230;DHT22;69540;42.136;24.742;2023-09-07T05:21:34;28.30;36.20
80230;DHT22;69540;42.136;24.742;2023-09-07T05:24:00;28.30;36.60
80230;DHT22;69540;42.136;24.742;2023-09-07T05:26:26;28.30;37.40
80230;DHT22;69540;42.136;24.742;2023-09-07T05:28:52;28.30;38.50
80230;DHT22;69540;42.136;24.742;2023-09-07T05:31:17;28.30;38.10
80230;DHT22;69540;42.136;24.742;2023-09-07T05:33:44;28.20;38.10
80230;DHT22;69540;42.136;24.742;2023-09-07T05:36:10;28.30;37.30
80230;DHT22;69540;42.136;24.742;2023-09-07T05:38:36;28.30;36.70
80230;DHT22;69540;42.136;24.742;2023-09-07T05:41:02;28.20;37.10
80230;DHT22;69540;42.136;24.742;2023-09-07T05:43:27;28.20;38.20
80230;DHT22;69540;42.136;24.742;2023-09-07T05:45:53;28.20;37.70
80230;DHT22;69540;42.136;24.742;2023-09-07T05:48:18;28.20;38.50
80230;DHT22;69540;42.136;24.742;2023-09-07T05:50:45;28.20;39.00
80230;DHT22;69540;42.136;24.742;2023-09-07T05:53:11;28.20;39.20
80230;DHT22;69540;42.136;24.742;2023-09-07T05:55:36;28.20;39.70
80230;DHT22;69540;42.136;24.742;2023-09-07T05:58:07;28.20;39.60
80230;DHT22;69540;42.136;24.742;2023-09-07T06:00:34;28.20;40.10
80230;DHT22;69540;42.136;24.742;2023-09-07T06:03:00;28.30;40.60
80230;DHT22;69540;42.136;24.742;2023-09-07T06:05:26;28.30;40.60
80230;DHT22;69540;42.136;24.742;2023-09-07T06:07:52;28.30;40.70
80230;DHT22;69540;42.136;24.742;2023-09-07T06:10:17;28.20;40.60
80230;DHT22;69540;42.136;24.742;2023-09-07T06:12:44;28.30;41.00
80230;DHT22;69540;42.136;24.742;2023-09-07T06:15:10;28.30;41.10
80230;DHT22;69540;42.136;24.742;2023-09-07T06:17:36;28.30;41.10
80230;DHT22;69540;42.136;24.742;2023-09-07T06:20:02;28.30;40.90
80230;DHT22;69540;42.136;24.742;2023-09-07T06:22:28;28.30;40.90
80230;DHT22;69540;42.136;24.742;2023-09-07T06:24:54;28.30;40.60
80230;DHT22;69540;42.136;24.742;2023-09-07T06:27:20;28.30;40.10
80230;DHT22;69540;42.136;24.742;2023-09-07T06:29:45;28.30;40.30
80230;DHT22;69540;42.136;24.742;2023-09-07T06:32:11;28.30;40.70
80230;DHT22;69540;42.136;24.742;2023-09-07T06:34:37;28.30;41.00
80230;DHT22;69540;42.136;24.742;2023-09-07T06:37:04;28.40;41.00
80230;DHT22;69540;42.136;24.742;2023-09-07T06:39:30;28.40;41.70
80230;DHT22;69540;42.136;24.742;2023-09-07T06:41:56;28.30;42.00
80230;DHT22;69540;42.136;24.742;2023-09-07T06:44:21;28.30;41.90
80230;DHT22;69540;42.136;24.742;2023-09-07T06:46:47;28.40;42.10
80230;DHT22;69540;42.136;24.742;2023-09-07T06:49:14;28.40;42.20
80230;DHT22;69540;42.136;24.742;2023-09-07T06:51:40;28.40;42.40
80230;DHT22;69540;42.136;24.742;2023-09-07T06:54:06;28.40;42.30
80230;DHT22;69540;42.136;24.742;2023-09-07T06:56:31;28.40;42.30
80230;DHT22;69540;42.136;24.742;2023-09-07T06:58:58;28.40;42.30
80230;DHT22;69540;42.136;24.742;2023-09-07T07:01:24;28.40;42.40
80230;DHT22;69540;42.136;24.742;2023-09-07T07:03:50;28.40;42.40
80230;DHT22;69540;42.136;24.742;2023-09-07T07:06:16;28.40;42.60
80230;DHT22;69540;42.136;24.742;2023-09-07T07:08:41;28.50;42.70
80230;DHT22;69540;42.136;24.742;2023-09-07T07:11:07;28.40;42.60
80230;DHT22;69540;42.136;24.742;2023-09-07T07:13:33;28.40;41.70
80230;DHT22;69540;42.136;24.742;2023-09-07T07:15:59;28.40;41.40
80230;DHT22;69540;42.136;24.742;2023-09-07T07:18:24;28.50;41.00
80230;DHT22;69540;42.136;24.742;2023-09-07T07:20:50;28.50;40.70
80230;DHT22;69540;42.136;24.742;2023-09-07T07:23:16;28.40;41.30
80230;DHT22;69540;42.136;24.742;2023-09-07T07:25:42;28.40;41.30
80230;DHT22;69540;42.136;24.742;2023-09-07T07:28:08;28.50;42.00
80230;DHT22;69540;42.136;24.742;2023-09-07T07:30:37;28.50;41.90
80230;DHT22;69540;42.136;24.742;2023-09-07T07:33:04;28.50;42.00
80230;DHT22;69540;42.136;24.742;2023-09-07T07:35:30;28.50;42.10
80230;DHT22;69540;42.136;24.742;2023-09-07T07:37:56;28.40;42.00
80230;DHT22;69540;42.136;24.742;2023-09-07T07:40:22;28.50;42.10
80230;DHT22;69540;42.136;24.742;2023-09-07T07:42:48;28.50;42.10
80230;DHT22;69540;42.136;24.742;2023-09-07T07:45:14;28.50;42.00
80230;DHT22;69540;42.136;24.742;2023-09-07T07:47:41;28.50;42.00
80230;DHT22;69540;42.136;24.742;2023-09-07T07:50:07;28.50;42.20
80230;DHT22;69540;42.136;24.742;2023-09-07T07:52:33;28.50;41.90
80230;DHT22;69540;42.136;24.742;2023-09-07T07:54:59;28.50;41.90
80230;DHT22;69540;42.136;24.742;2023-09-07T07:57:25;28.50;41.90
80230;DHT22;69540;42.136;24.742;2023-09-07T07:59:51;28.50;41.80
80230;DHT22;69540;42.136;24.742;2023-09-07T08:02:16;28.50;41.60
80230;DHT22;69540;42.136;24.742;2023-09-07T08:04:42;28.50;41.50
80230;DHT22;69540;42.136;24.742;2023-09-07T08:07:07;28.60;41.50
80230;DHT22;69540;42.136;24.742;2023-09-07T08:09:34;28.50;41.40
80230;DHT22;69540;42.136;24.742;2023-09-07T08:12:00;28.60;41.50
80230;DHT22;69540;42.136;24.742;2023-09-07T08:14:29;28.60;41.40
80230;DHT22;69540;42.136;24.742;2023-09-07T08:16:57;28.60;41.40
80230;DHT22;69540;42.136;24.742;2023-09-07T08:19:22;28.60;41.40
80230;DHT22;69540;42.136;24.742;2023-09-07T08:21:48;28.60;40.80
80230;DHT22;69540;42.136;24.742;2023-09-07T08:24:14;28.60;40.80
80230;DHT22;69540;42.136;24.742;2023-09-07T08:26:43;28.60;40.80
80230;DHT22;69540;42.136;24.742;2023-09-07T08:29:09;28.60;40.50
80230;DHT22;69540;42.136;24.742;2023-09-07T08:31:37;28.60;39.60
80230;DHT22;69540;42.136;24.742;2023-09-07T08:34:05;28.60;39.30
80230;DHT22;69540;42.136;24.742;2023-09-07T08:36:32;28.60;39.80
80230;DHT22;69540;42.136;24.742;2023-09-07T08:39:00;28.60;39.80
80230;DHT22;69540;42.136;24.742;2023-09-07T08:41:40;28.60;40.10
80230;DHT22;69540;42.136;24.742;2023-09-07T08:44:10;28.60;40.30
80230;DHT22;69540;42.136;24.742;2023-09-07T08:46:37;28.60;40.50
80230;DHT22;69540;42.136;24.742;2023-09-07T08:49:03;28.60;40.50
80230;DHT22;69540;42.136;24.742;2023-09-07T08:51:30;28.60;40.60
80230;DHT22;69540;42.136;24.742;2023-09-07T08:54:01;28.70;40.70
80230;DHT22;69540;42.136;24.742;2023-09-07T08:56:28;28.60;40.70
80230;DHT22;69540;42.136;24.742;2023-09-07T08:58:53;28.60;40.60
80230;DHT22;69540;42.136;24.742;2023-09-07T09:01:20;28.70;40.30
80230;DHT22;69540;42.136;24.742;2023-09-07T09:03:49;28.60;39.70
80230;DHT22;69540;42.136;24.742;2023-09-07T09:06:17;28.60;39.50
80230;DHT22;69540;42.136;24.742;2023-09-07T09:08:54;28.60;39.10
80230;DHT22;69540;42.136;24.742;2023-09-07T09:11:21;28.70;39.00
80230;DHT22;69540;42.136;24.742;2023-09-07T09:13:48;28.60;39.00
80230;DHT22;69540;42.136;24.742;2023-09-07T09:16:14;28.60;38.50
80230;DHT22;69540;42.136;24.742;2023-09-07T09:18:54;28.70;38.50
80230;DHT22;69540;42.136;24.742;2023-09-07T09:21:24;28.70;38.70
80230;DHT22;69540;42.136;24.742;2023-09-07T09:23:55;28.60;39.00
80230;DHT22;69540;42.136;24.742;2023-09-07T09:26:21;28.60;39.20
80230;DHT22;69540;42.136;24.742;2023-09-07T09:28:47;28.60;39.40
80230;DHT22;69540;42.136;24.742;2023-09-07T09:31:14;28.60;39.50
80230;DHT22;69540;42.136;24.742;2023-09-07T09:33:41;28.60;40.70
80230;DHT22;69540;42.136;24.742;2023-09-07T09:36:07;28.60;39.70
80230;DHT22;69540;42.136;24.742;2023-09-07T09:38:34;28.60;39.80
80230;DHT22;69540;42.136;24.742;2023-09-07T09:41:00;28.60;39.70
80230;DHT22;69540;42.136;24.742;2023-09-07T09:43:26;28.70;39.40
80230;DHT22;69540;42.136;24.742;2023-09-07T09:45:53;28.70;39.50
80230;DHT22;69540;42.136;24.742;2023-09-07T09:48:19;28.60;39.40
80230;DHT22;69540;42.136;24.742;2023-09-07T09:50:49;28.70;39.30
80230;DHT22;69540;42.136;24.742;2023-09-07T09:53:16;28.70;38.80
80230;DHT22;69540;42.136;24.742;2023-09-07T09:55:47;28.70;38.40
80230;DHT22;69540;42.136;24.742;2023-09-07T09:58:14;28.70;37.90
80230;DHT22;69540;42.136;24.742;2023-09-07T10:00:46;28.70;38.30
80230;DHT22;69540;42.136;24.742;2023-09-07T10:03:24;28.70;38.40
80230;DHT22;69540;42.136;24.742;2023-09-07T10:05:52;28.70;38.90
80230;DHT22;69540;42.136;24.742;2023-09-07T10:08:19;28.60;38.60
80230;DHT22;69540;42.136;24.742;2023-09-07T10:10:52;28.60;38.30
80230;DHT22;69540;42.136;24.742;2023-09-07T10:13:29;28.70;38.20
80230;DHT22;69540;42.136;24.742;2023-09-07T10:16:06;28.70;38.20
80230;DHT22;69540;42.136;24.742;2023-09-07T10:18:37;28.70;38.20
80230;DHT22;69540;42.136;24.742;2023-09-07T10:21:03;28.70;38.20
80230;DHT22;69540;42.136;24.742;2023-09-07T10:23:43;28.70;38.30
80230;DHT22;69540;42.136;24.742;2023-09-07T10:26:12;28.70;38.40
80230;DHT22;69540;42.136;24.742;2023-09-07T10:28:39;28.70;38.50
80230;DHT22;69540;42.136;24.742;2023-09-07T10:31:16;28.70;38.70
80230;DHT22;69540;42.136;24.742;2023-09-07T10:33:43;28.70;38.80
80230;DHT22;69540;42.136;24.742;2023-09-07T10:36:08;28.70;39.00
80230;DHT22;69540;42.136;24.742;2023-09-07T10:38:45;28.70;39.10
80230;DHT22;69540;42.136;24.742;2023-09-07T10:41:10;28.70;39.10
80230;DHT22;69540;42.136;24.742;2023-09-07T10:43:50;28.70;38.90
80230;DHT22;69540;42.136;24.742;2023-09-07T10:46:18;28.70;38.70
80230;DHT22;69540;42.136;24.742;2023-09-07T10:48:44;28.70;38.70
80230;DHT22;69540;42.136;24.742;2023-09-07T10:51:10;28.70;38.70
80230;DHT22;69540;42.136;24.742;2023-09-07T10:53:36;28.70;38.70
80230;DHT22;69540;42.136;24.742;2023-09-07T10:56:07;28.70;38.70
80230;DHT22;69540;42.136;24.742;2023-09-07T10:58:35;28.70;38.60
80230;DHT22;69540;42.136;24.742;2023-09-07T11:01:01;28.80;38.60
80230;DHT22;69540;42.136;24.742;2023-09-07T11:03:30;28.70;38.40
80230;DHT22;69540;42.136;24.742;2023-09-07T11:06:19;28.80;38.50
80230;DHT22;69540;42.136;24.742;2023-09-07T11:08:50;28.80;38.10
80230;DHT22;69540;42.136;24.742;2023-09-07T11:11:16;28.70;37.30
80230;DHT22;69540;42.136;24.742;2023-09-07T11:13:42;28.70;37.00
80230;DHT22;69540;42.136;24.742;2023-09-07T11:16:09;28.80;36.90
80230;DHT22;69540;42.136;24.742;2023-09-07T11:18:35;28.70;37.00
80230;DHT22;69540;42.136;24.742;2023-09-07T11:21:03;28.70;37.10
80230;DHT22;69540;42.136;24.742;2023-09-07T11:23:30;28.70;37.10
80230;DHT22;69540;42.136;24.742;2023-09-07T11:26:09;28.80;37.20
80230;DHT22;69540;42.136;24.742;2023-09-07T11:28:35;28.80;37.40
80230;DHT22;69540;42.136;24.742;2023-09-07T11:31:00;28.70;37.40
80230;DHT22;69540;42.136;24.742;2023-09-07T11:33:26;28.70;37.40
80230;DHT22;69540;42.136;24.742;2023-09-07T11:35:56;28.70;36.60
80230;DHT22;69540;42.136;24.742;2023-09-07T11:38:22;28.80;36.00
80230;DHT22;69540;42.136;24.742;2023-09-07T11:40:47;28.70;35.40
80230;DHT22;69540;42.136;24.742;2023-09-07T11:43:17;28.70;35.20
80230;DHT22;69540;42.136;24.742;2023-09-07T11:45:46;28.70;35.10
80230;DHT22;69540;42.136;24.742;2023-09-07T11:48:12;28.70;35.20
80230;DHT22;69540;42.136;24.742;2023-09-07T11:50:38;28.70;35.20
80230;DHT22;69540;42.136;24.742;2023-09-07T11:53:06;28.70;35.20
80230;DHT22;69540;42.136;24.742;2023-09-07T11:55:32;28.70;34.90
80230;DHT22;69540;42.136;24.742;2023-09-07T11:57:58;28.80;34.90
80230;DHT22;69540;42.136;24.742;2023-09-07T12:00:24;28.70;35.00
80230;DHT22;69540;42.136;24.742;2023-09-07T12:02:50;28.80;35.10
80230;DHT22;69540;42.136;24.742;2023-09-07T12:05:15;28.80;35.30
80230;DHT22;69540;42.136;24.742;2023-09-07T12:07:42;28.70;35.30
80230;DHT22;69540;42.136;24.742;2023-09-07T12:10:12;28.70;35.40
80230;DHT22;69540;42.136;24.742;2023-09-07T12:12:42;28.80;35.50
80230;DHT22;69540;42.136;24.742;2023-09-07T12:15:09;28.80;35.50
80230;DHT22;69540;42.136;24.742;2023-09-07T12:17:37;28.80;35.70
80230;DHT22;69540;42.136;24.742;2023-09-07T12:20:03;28.80;35.90
80230;DHT22;69540;42.136;24.742;2023-09-07T12:22:30;28.80;35.90
80230;DHT22;69540;42.136;24.742;2023-09-07T12:24:56;28.80;36.00
80230;DHT22;69540;42.136;24.742;2023-09-07T12:27:21;28.80;36.00
80230;DHT22;69540;42.136;24.742;2023-09-07T12:29:47;28.80;36.00
80230;DHT22;69540;42.136;24.742;2023-09-07T12:32:14;28.80;35.90
80230;DHT22;69540;42.136;24.742;2023-09-07T12:34:40;28.80;36.00
80230;DHT22;69540;42.136;24.742;2023-09-07T12:37:05;28.80;35.90
80230;DHT22;69540;42.136;24.742;2023-09-07T12:39:32;28.80;36.00
80230;DHT22;69540;42.136;24.742;2023-09-07T12:41:58;28.80;35.50
80230;DHT22;69540;42.136;24.742;2023-09-07T12:44:23;28.80;35.50
80230;DHT22;69540;42.136;24.742;2023-09-07T12:46:49;28.80;35.50
80230;DHT22;69540;42.136;24.742;2023-09-07T12:49:15;28.80;35.50
80230;DHT22;69540;42.136;24.742;2023-09-07T12:51:41;28.80;35.60
80230;DHT22;69540;42.136;24.742;2023-09-07T12:54:07;28.80;35.80
80230;DHT22;69540;42.136;24.742;2023-09-07T12:56:33;28.80;35.80
80230;DHT22;69540;42.136;24.742;2023-09-07T12:58:59;28.80;35.70
80230;DHT22;69540;42.136;24.742;2023-09-07T13:01:26;28.80;35.50
80230;DHT22;69540;42.136;24.742;2023-09-07T13:03:51;28.80;35.50
80230;DHT22;69540;42.136;24.742;2023-09-07T13:06:17;28.80;35.60
80230;DHT22;69540;42.136;24.742;2023-09-07T13:08:43;28.80;35.70
80230;DHT22;69540;42.136;24.742;2023-09-07T13:11:10;28.80;35.70
80230;DHT22;69540;42.136;24.742;2023-09-07T13:13:36;28.80;35.70
80230;DHT22;69540;42.136;24.742;2023-09-07T13:16:02;28.80;35.80
80230;DHT22;69540;42.136;24.742;2023-09-07T13:18:27;28.80;35.60
80230;DHT22;69540;42.136;24.742;2023-09-07T13:20:53;28.80;35.50
80230;DHT22;69540;42.136;24.742;2023-09-07T13:23:25;28.80;35.60
80230;DHT22;69540;42.136;24.742;2023-09-07T13:25:51;28.80;35.80
80230;DHT22;69540;42.136;24.742;2023-09-07T13:28:16;28.80;35.80
80230;DHT22;69540;42.136;24.742;2023-09-07T13:30:42;28.80;35.80
80230;DHT22;69540;42.136;24.742;2023-09-07T13:33:08;28.80;35.60
80230;DHT22;69540;42.136;24.742;2023-09-07T13:35:33;28.90;35.50
80230;DHT22;69540;42.136;24.742;2023-09-07T13:37:59;28.90;35.60
80230;DHT22;69540;42.136;24.742;2023-09-07T13:40:25;28.90;35.50
80230;DHT22;69540;42.136;24.742;2023-09-07T13:42:55;28.90;34.90
80230;DHT22;69540;42.136;24.742;2023-09-07T13:45:21;28.90;34.80
80230;DHT22;69540;42.136;24.742;2023-09-07T13:47:47;28.90;34.80
80230;DHT22;69540;42.136;24.742;2023-09-07T13:50:13;28.90;34.70
80230;DHT22;69540;42.136;24.742;2023-09-07T13:52:39;28.90;34.80
80230;DHT22;69540;42.136;24.742;2023-09-07T13:55:05;28.90;34.80
80230;DHT22;69540;42.136;24.742;2023-09-07T13:57:32;28.90;35.00
80230;DHT22;69540;42.136;24.742;2023-09-07T13:59:57;28.90;35.10
80230;DHT22;69540;42.136;24.742;2023-09-07T14:02:23;28.90;35.20
80230;DHT22;69540;42.136;24.742;2023-09-07T14:04:49;28.90;35.10
80230;DHT22;69540;42.136;24.742;2023-09-07T14:07:15;28.90;36.00
80230;DHT22;69540;42.136;24.742;2023-09-07T14:09:40;28.90;35.30
80230;DHT22;69540;42.136;24.742;2023-09-07T14:12:06;29.00;35.60
80230;DHT22;69540;42.136;24.742;2023-09-07T14:14:32;29.00;35.70
80230;DHT22;69540;42.136;24.742;2023-09-07T14:16:58;28.90;35.60
80230;DHT22;69540;42.136;24.742;2023-09-07T14:19:26;29.00;35.70
80230;DHT22;69540;42.136;24.742;2023-09-07T14:21:57;28.90;35.70
80230;DHT22;69540;42.136;24.742;2023-09-07T14:24:24;28.80;35.50
80230;DHT22;69540;42.136;24.742;2023-09-07T14:26:50;28.90;35.80
80230;DHT22;69540;42.136;24.742;2023-09-07T14:29:15;28.90;36.10
80230;DHT22;69540;42.136;24.742;2023-09-07T14:31:41;28.90;36.10
80230;DHT22;69540;42.136;24.742;2023-09-07T14:34:08;28.90;36.20
80230;DHT22;69540;42.136;24.742;2023-09-07T14:36:34;28.90;36.10
80230;DHT22;69540;42.136;24.742;2023-09-07T14:38:59;28.90;36.10
80230;DHT22;69540;42.136;24.742;2023-09-07T14:41:25;28.90;36.20
80230;DHT22;69540;42.136;24.742;2023-09-07T14:43:51;28.90;36.20
80230;DHT22;69540;42.136;24.742;2023-09-07T14:46:17;28.90;36.10
80230;DHT22;69540;42.136;24.742;2023-09-07T14:48:43;28.90;36.10
80230;DHT22;69540;42.136;24.742;2023-09-07T14:51:09;28.90;36.10
80230;DHT22;69540;42.136;24.742;2023-09-07T14:53:35;28.90;36.10
80230;DHT22;69540;42.136;24.742;2023-09-07T14:56:01;28.90;36.10
80230;DHT22;69540;42.136;24.742;2023-09-07T14:58:27;28.90;36.00
80230;DHT22;69540;42.136;24.742;2023-09-07T15:00:52;28.90;36.10
80230;DHT22;69540;42.136;24.742;2023-09-07T15:03:18;28.90;36.10
80230;DHT22;69540;42.136;24.742;2023-09-07T15:05:43;28.90;36.10
80230;DHT22;69540;42.136;24.742;2023-09-07T15:08:09;28.90;36.10
80230;DHT22;69540;42.136;24.742;2023-09-07T15:10:35;28.90;36.10
80230;DHT22;69540;42.136;24.742;2023-09-07T15:13:01;28.90;36.10